Time;durP1;ratioP1;P1;durP2;ratioP2;P2;SDS_P1;SDS_P2;PMS_P1;PMS_P2;Temp;Humidity;BMP_temperature;BMP_pressure;BME280_temperature;BME280_humidity;BME280_pressure;Samples;Min_cycle;Max_cycle;Signal;HPM_P1;HPM_P2
2024/02/15 00:01:18;;;;;;;0.00;0.00;;;10.20;99.90;;;;;;5083649;28;20043;-79
2024/02/15 00:03:44;;;;;;;0.07;0.07;;;10.20;99.90;;;;;;5081333;28;20024;-79
2024/02/15 00:06:14;;;;;;;0.10;0.10;;;10.20;99.90;;;;;;5083427;28;20024;-79
2024/02/15 00:08:40;;;;;;;0.00;0.00;;;10.20;99.90;;;;;;5076894;28;20028;-78
2024/02/15 00:11:08;;;;;;;0.00;0.00;;;10.20;99.90;;;;;;5076465;28;20016;-79
2024/02/15 00:13:34;;;;;;;0.10;0.10;;;10.10;99.90;;;;;;5075064;28;20027;-77
2024/02/15 00:16:00;;;;;;;0.10;0.10;;;10.00;99.90;;;;;;5085410;28;20097;-78
2024/02/15 00:18:26;;;;;;;;;;;9.90;99.90;;;;;;5077849;28;20024;-78
2024/02/15 00:20:52;;;;;;;0.03;0.03;;;9.90;99.90;;;;;;5072157;28;19904;-78
2024/02/15 00:23:18;;;;;;;0.10;0.10;;;9.90;99.90;;;;;;5078941;28;20058;-77
2024/02/15 00:25:45;;;;;;;0.10;0.10;;;10.00;99.90;;;;;;5087398;28;20455;-78
2024/02/15 00:28:17;;;;;;;0.75;0.75;;;9.90;99.90;;;;;;5081364;28;20596;-77
2024/02/15 00:30:42;;;;;;;0.05;0.05;;;10.00;99.90;;;;;;5072659;28;20101;-79
2024/02/15 00:33:08;;;;;;;0.00;0.00;;;10.00;99.90;;;;;;5089436;28;20035;-79
2024/02/15 00:35:34;;;;;;;0.03;0.03;;;10.00;99.90;;;;;;5089551;28;20521;-79
2024/02/15 00:37:59;;;;;;;0.10;0.10;;;10.10;99.90;;;;;;5085720;28;20083;-79
2024/02/15 00:40:25;;;;;;;0.00;0.00;;;10.10;99.90;;;;;;5086661;28;20044;-79
2024/02/15 00:43:00;;;;;;;0.00;0.00;;;10.10;99.90;;;;;;5081307;28;20548;-79
2024/02/15 00:45:25;;;;;;;0.10;0.10;;;10.10;99.90;;;;;;5088539;28;20105;-78
2024/02/15 00:47:51;;;;;;;0.00;0.00;;;10.00;99.90;;;;;;5085138;28;20020;-78
2024/02/15 00:50:17;;;;;;;0.00;0.00;;;10.00;99.90;;;;;;5085192;28;20077;-78
2024/02/15 00:52:43;;;;;;;0.08;0.08;;;10.10;99.90;;;;;;5087556;28;20169;-79
2024/02/15 00:55:08;;;;;;;0.10;0.10;;;9.90;99.90;;;;;;5084238;28;20036;-78
2024/02/15 00:57:35;;;;;;;0.10;0.10;;;10.00;99.90;;;;;;5082643;28;20089;-78
2024/02/15 01:00:03;;;;;;;0.25;0.25;;;10.20;99.90;;;;;;5085710;28;20032;-78
2024/02/15 01:02:29;;;;;;;0.30;0.30;;;10.30;99.80;;;;;;5079700;28;21004;-79
2024/02/15 01:04:57;;;;;;;0.00;0.00;;;10.40;98.70;;;;;;5084403;28;20021;-78
2024/02/15 01:07:26;;;;;;;0.00;0.00;;;10.50;98.00;;;;;;5085178;28;20073;-79
2024/02/15 01:09:51;;;;;;;0.10;0.10;;;10.10;99.20;;;;;;5084332;28;20016;-79
2024/02/15 01:12:17;;;;;;;0.07;0.07;;;10.20;99.20;;;;;;5078160;28;20035;-78
2024/02/15 01:14:43;;;;;;;0.00;0.00;;;10.10;99.50;;;;;;5080934;28;20086;-78
2024/02/15 01:17:09;;;;;;;0.00;0.00;;;10.10;99.70;;;;;;5081538;28;20107;-78
2024/02/15 01:19:35;;;;;;;0.00;0.00;;;9.90;99.90;;;;;;5088501;28;20139;-79
2024/02/15 01:22:00;;;;;;;0.00;0.00;;;9.80;99.90;;;;;;5079530;28;20036;-79
2024/02/15 01:24:26;;;;;;;0.07;0.07;;;9.80;99.90;;;;;;5091840;28;20563;-78
2024/02/15 01:26:53;;;;;;;0.10;0.10;;;9.90;99.90;;;;;;5080377;28;20078;-79
2024/02/15 01:29:18;;;;;;;;;;;10.00;99.90;;;;;;5079437;28;20036;-79
2024/02/15 01:31:44;;;;;;;0.10;0.10;;;10.10;99.90;;;;;;5081471;28;20007;-78
2024/02/15 01:34:10;;;;;;;0.00;0.00;;;10.10;99.90;;;;;;5082303;28;20028;-78
2024/02/15 01:36:36;;;;;;;0.10;0.10;;;10.10;99.90;;;;;;5083664;28;20089;-78
2024/02/15 01:39:02;;;;;;;0.00;0.00;;;10.20;99.60;;;;;;5086686;28;20041;-79
2024/02/15 01:41:27;;;;;;;0.10;0.10;;;10.30;99.30;;;;;;5086554;28;20081;-79
2024/02/15 01:43:53;;;;;;;0.10;0.10;;;10.40;98.80;;;;;;5085340;28;20060;-79
2024/02/15 01:46:20;;;;;;;0.47;0.47;;;10.70;97.00;;;;;;5083395;28;20403;-79
2024/02/15 01:48:46;;;;;;;0.00;0.00;;;11.10;95.10;;;;;;5087644;28;20043;-79
2024/02/15 01:51:16;;;;;;;0.00;0.00;;;11.50;93.00;;;;;;5080748;28;20036;-79
2024/02/15 01:53:42;;;;;;;0.00;0.00;;;11.50;92.50;;;;;;5077680;28;20059;-79
2024/02/15 01:56:08;;;;;;;0.00;0.00;;;11.50;92.20;;;;;;5080448;28;20072;-79
2024/02/15 01:58:35;;;;;;;0.00;0.00;;;11.50;92.10;;;;;;5083083;28;20051;-80
2024/02/15 02:01:01;;;;;;;0.00;0.00;;;11.50;92.10;;;;;;5080281;28;20047;-79
2024/02/15 02:03:27;;;;;;;0.00;0.00;;;11.30;92.50;;;;;;5081930;28;20016;-78
2024/02/15 02:05:53;;;;;;;0.00;0.00;;;11.10;93.10;;;;;;5080928;28;20077;-79
2024/02/15 02:08:19;;;;;;;0.10;0.10;;;11.00;93.20;;;;;;5085741;28;20039;-80
2024/02/15 02:10:45;;;;;;;0.00;0.00;;;11.00;93.20;;;;;;5075551;28;20113;-79
2024/02/15 02:13:11;;;;;;;0.22;0.22;;;11.00;93.50;;;;;;5086650;28;20073;-79
2024/02/15 02:15:37;;;;;;;0.00;0.00;;;11.00;93.30;;;;;;5087057;28;20103;-79
2024/02/15 02:18:08;;;;;;;0.30;0.30;;;11.30;92.20;;;;;;5084900;28;20095;-79
2024/02/15 02:20:36;;;;;;;0.00;0.00;;;11.60;91.30;;;;;;5073480;28;20036;-79
2024/02/15 02:23:16;;;;;;;0.00;0.00;;;11.40;91.30;;;;;;5081265;28;20024;-79
2024/02/15 02:25:42;;;;;;;0.10;0.10;;;11.40;91.40;;;;;;5078473;28;20032;-79
2024/02/15 02:28:08;;;;;;;;;;;11.70;90.60;;;;;;5084175;28;20032;-79
2024/02/15 02:30:34;;;;;;;0.00;0.00;;;11.90;90.00;;;;;;5077001;28;19919;-79
2024/02/15 02:33:01;;;;;;;0.10;0.10;;;11.80;89.90;;;;;;5082798;28;20119;-78
2024/02/15 02:35:29;;;;;;;0.00;0.00;;;11.80;90.00;;;;;;5081094;28;20036;-78
2024/02/15 02:37:56;;;;;;;0.00;0.00;;;11.70;90.20;;;;;;5089256;28;20034;-79
2024/02/15 02:40:22;;;;;;;0.00;0.00;;;11.70;90.10;;;;;;5080622;28;20349;-78
2024/02/15 02:42:59;;;;;;;0.00;0.00;;;11.70;90.40;;;;;;5076998;28;20035;-78
2024/02/15 02:45:25;;;;;;;0.00;0.00;;;11.50;90.90;;;;;;5078504;28;20035;-78
2024/02/15 02:47:51;;;;;;;0.00;0.00;;;11.50;90.80;;;;;;5080997;28;20039;-77
2024/02/15 02:50:17;;;;;;;0.03;0.03;;;11.50;91.00;;;;;;5075180;28;20040;-78
2024/02/15 02:52:44;;;;;;;0.00;0.00;;;11.40;91.10;;;;;;5075841;28;20044;-77
2024/02/15 02:55:11;;;;;;;0.00;0.00;;;11.40;91.30;;;;;;5079193;28;20032;-78
2024/02/15 02:57:37;;;;;;;0.00;0.00;;;11.50;90.80;;;;;;5083276;28;20028;-78
2024/02/15 03:00:12;;;;;;;0.10;0.10;;;11.60;90.30;;;;;;5080613;28;20032;-78
2024/02/15 03:02:43;;;;;;;0.08;0.08;;;11.60;90.40;;;;;;5073391;28;20044;-78
2024/02/15 03:05:11;;;;;;;0.00;0.00;;;11.50;90.40;;;;;;5086346;28;20028;-78
2024/02/15 03:07:37;;;;;;;0.00;0.00;;;11.40;90.90;;;;;;5081675;28;20104;-78
2024/02/15 03:10:04;;;;;;;0.00;0.00;;;11.20;91.30;;;;;;5085631;28;20035;-78
2024/02/15 03:12:35;;;;;;;0.10;0.10;;;11.20;91.40;;;;;;5077568;28;20263;-78
2024/02/15 03:15:01;;;;;;;0.00;0.00;;;11.30;91.20;;;;;;5078405;28;20055;-78
2024/02/15 03:17:27;;;;;;;0.90;0.90;;;11.40;91.00;;;;;;5078530;28;20027;-78
2024/02/15 03:19:53;;;;;;;0.10;0.10;;;11.20;92.00;;;;;;5078043;28;20507;-78
2024/02/15 03:22:18;;;;;;;0.10;0.10;;;11.00;92.40;;;;;;5071011;28;20031;-78
2024/02/15 03:24:44;;;;;;;0.00;0.00;;;11.20;91.90;;;;;;5087047;28;20038;-78
2024/02/15 03:27:12;;;;;;;5.45;1.35;;;11.40;90.80;;;;;;5084669;28;20118;-78
2024/02/15 03:29:38;;;;;;;0.65;0.65;;;11.40;91.00;;;;;;5087044;28;20563;-78
2024/02/15 03:32:05;;;;;;;0.10;0.10;;;11.40;90.70;;;;;;5076834;28;20090;-79
2024/02/15 03:34:31;;;;;;;0.10;0.10;;;11.50;90.60;;;;;;5084181;28;20028;-77
2024/02/15 03:36:58;;;;;;;0.00;0.00;;;11.20;91.50;;;;;;5072987;28;20042;-78
2024/02/15 03:39:24;;;;;;;0.00;0.00;;;11.00;92.60;;;;;;5081713;28;20135;-78
2024/02/15 03:41:50;;;;;;;0.00;0.00;;;10.90;93.00;;;;;;5078603;28;20099;-77
2024/02/15 03:44:19;;;;;;;0.55;0.55;;;11.00;92.80;;;;;;5079431;28;20016;-78
2024/02/15 03:46:50;;;;;;;0.00;0.00;;;11.00;92.40;;;;;;5075409;28;20064;-78
2024/02/15 03:49:17;;;;;;;0.00;0.00;;;11.20;91.80;;;;;;5081255;28;20043;-78
2024/02/15 03:51:44;;;;;;;0.10;0.10;;;11.30;91.10;;;;;;5078986;28;20892;-78
2024/02/15 03:54:11;;;;;;;0.00;0.00;;;11.30;90.90;;;;;;5083168;28;20023;-78
2024/02/15 03:56:37;;;;;;;0.10;0.10;;;11.60;89.30;;;;;;5085218;28;20169;-78
2024/02/15 03:59:04;;;;;;;0.00;0.00;;;11.90;87.40;;;;;;5093413;28;20040;-78
2024/02/15 04:01:33;;;;;;;0.00;0.00;;;12.10;85.30;;;;;;5076315;28;20063;-78
2024/02/15 04:03:59;;;;;;;0.10;0.10;;;12.00;84.80;;;;;;5080847;28;20073;-79
2024/02/15 04:06:27;;;;;;;0.10;0.10;;;12.50;82.20;;;;;;5079723;28;20033;-79
2024/02/15 04:08:53;;;;;;;0.00;0.00;;;12.60;81.30;;;;;;5086112;28;20418;-78
2024/02/15 04:11:19;;;;;;;0.00;0.00;;;12.30;84.10;;;;;;5085511;28;20127;-79
2024/02/15 04:13:45;;;;;;;0.10;0.10;;;11.80;86.60;;;;;;5080841;28;20031;-78
2024/02/15 04:16:11;;;;;;;0.00;0.00;;;11.60;88.80;;;;;;5079123;28;20047;-78
2024/02/15 04:18:37;;;;;;;0.00;0.00;;;11.40;90.30;;;;;;5078068;28;20496;-79
2024/02/15 04:21:05;;;;;;;0.00;0.00;;;11.20;90.60;;;;;;5074560;28;20035;-78
2024/02/15 04:23:31;;;;;;;0.10;0.10;;;11.40;90.00;;;;;;5078372;28;20063;-78
2024/02/15 04:25:59;;;;;;;0.00;0.00;;;12.10;84.10;;;;;;5079194;28;20063;-79
2024/02/15 04:28:25;;;;;;;0.00;0.00;;;12.70;78.90;;;;;;5082303;28;20032;-78
2024/02/15 04:30:51;;;;;;;0.00;0.00;;;12.70;78.70;;;;;;5082817;28;20560;-78
2024/02/15 04:33:16;;;;;;;0.00;0.00;;;12.50;79.00;;;;;;5086414;28;20044;-79
2024/02/15 04:35:43;;;;;;;0.00;0.00;;;12.30;80.70;;;;;;5080451;28;20510;-79
2024/02/15 04:38:09;;;;;;;;;;;12.00;82.60;;;;;;5082522;28;20027;-78
2024/02/15 04:40:37;;;;;;;0.00;0.00;;;11.80;85.30;;;;;;5084445;28;19919;-78
2024/02/15 04:43:04;;;;;;;0.00;0.00;;;11.50;88.00;;;;;;5085402;28;20036;-77
2024/02/15 04:45:30;;;;;;;0.03;0.03;;;11.40;88.20;;;;;;5080464;28;20052;-78
2024/02/15 04:47:57;;;;;;;0.00;0.00;;;11.50;87.00;;;;;;5078839;28;20117;-78
2024/02/15 04:50:22;;;;;;;0.00;0.00;;;11.60;86.50;;;;;;5083454;28;20028;-80
2024/02/15 04:52:49;;;;;;;0.00;0.00;;;11.30;87.00;;;;;;5091131;28;20042;-79
2024/02/15 04:55:15;;;;;;;0.00;0.00;;;11.50;86.00;;;;;;5084768;28;20028;-80
2024/02/15 04:57:41;;;;;;;0.00;0.00;;;11.40;86.70;;;;;;5079614;28;20119;-79
2024/02/15 05:00:12;;;;;;;0.00;0.00;;;11.20;87.20;;;;;;5080963;28;20400;-79
2024/02/15 05:02:40;;;;;;;0.00;0.00;;;11.20;86.50;;;;;;5073472;28;20047;-80
2024/02/15 05:05:12;;;;;;;0.22;0.22;;;11.40;83.50;;;;;;5085962;28;20076;-78
2024/02/15 05:07:39;;;;;;;0.00;0.00;;;11.30;84.60;;;;;;5082629;28;20039;-79
2024/02/15 05:10:06;;;;;;;0.10;0.10;;;11.30;84.90;;;;;;5080988;28;20046;-78
2024/02/15 05:12:33;;;;;;;0.00;0.00;;;11.30;85.00;;;;;;5087012;28;20169;-78
2024/02/15 05:14:59;;;;;;;0.00;0.00;;;11.30;85.20;;;;;;5079117;28;20032;-78
2024/02/15 05:17:25;;;;;;;0.00;0.00;;;11.20;85.40;;;;;;5078733;28;20028;-78
2024/02/15 05:19:50;;;;;;;0.00;0.00;;;11.20;85.00;;;;;;5081292;28;20036;-78
2024/02/15 05:22:18;;;;;;;0.10;0.10;;;11.10;86.30;;;;;;5080922;28;20031;-79
2024/02/15 05:24:44;;;;;;;0.00;0.00;;;11.00;87.90;;;;;;5088669;28;20027;-78
2024/02/15 05:27:09;;;;;;;0.00;0.00;;;10.80;89.60;;;;;;5083433;28;20035;-79
2024/02/15 05:29:35;;;;;;;0.10;0.10;;;10.80;89.70;;;;;;5084144;28;20032;-78
2024/02/15 05:32:02;;;;;;;0.00;0.00;;;10.80;89.70;;;;;;5080880;28;20032;-78
2024/02/15 05:34:30;;;;;;;0.00;0.00;;;10.80;89.30;;;;;;5090047;28;20032;-79
2024/02/15 05:36:56;;;;;;;0.00;0.00;;;10.90;88.70;;;;;;5077760;28;20576;-78
2024/02/15 05:39:23;;;;;;;0.00;0.00;;;10.90;88.80;;;;;;5091048;28;20134;-78
2024/02/15 05:41:48;;;;;;;0.10;0.10;;;10.80;89.10;;;;;;5080342;28;20062;-78
2024/02/15 05:44:18;;;;;;;0.03;0.03;;;10.60;89.90;;;;;;5077152;28;20460;-78
2024/02/15 05:46:44;;;;;;;0.10;0.10;;;10.50;90.20;;;;;;5081458;28;20024;-77
2024/02/15 05:49:15;;;;;;;0.00;0.00;;;10.40;90.40;;;;;;5085352;28;20036;-76
2024/02/15 05:51:41;;;;;;;0.05;0.05;;;10.50;90.20;;;;;;5084031;28;20266;-77
2024/02/15 05:54:07;;;;;;;0.00;0.00;;;10.80;88.10;;;;;;5088705;28;20085;-78
2024/02/15 05:56:33;;;;;;;0.00;0.00;;;11.30;84.70;;;;;;5088456;28;20044;-77
2024/02/15 05:58:58;;;;;;;0.00;0.00;;;11.60;82.10;;;;;;5081890;28;20044;-77
2024/02/15 06:01:24;;;;;;;0.10;0.10;;;11.60;81.60;;;;;;5083728;28;20104;-77
2024/02/15 06:03:54;;;;;;;0.00;0.00;;;11.80;80.30;;;;;;5085791;28;20051;-77
2024/02/15 06:06:20;;;;;;;0.00;0.00;;;11.60;80.30;;;;;;5080567;28;20062;-77
2024/02/15 06:08:47;;;;;;;1.30;1.20;;;11.50;80.80;;;;;;5083096;28;20059;-77
2024/02/15 06:11:12;;;;;;;0.00;0.00;;;11.40;81.00;;;;;;5086952;28;20032;-78
2024/02/15 06:13:38;;;;;;;0.00;0.00;;;11.60;79.90;;;;;;5079024;28;20054;-78
2024/02/15 06:16:09;;;;;;;0.00;0.00;;;11.50;80.20;;;;;;5080891;28;20135;-78
2024/02/15 06:18:35;;;;;;;0.00;0.00;;;11.50;80.50;;;;;;5077305;28;20487;-78
2024/02/15 06:21:01;;;;;;;0.00;0.00;;;11.40;81.20;;;;;;5086476;28;20028;-77
2024/02/15 06:23:27;;;;;;;0.10;0.10;;;11.40;81.40;;;;;;5085807;28;20051;-78
2024/02/15 06:25:56;;;;;;;0.00;0.00;;;11.50;80.80;;;;;;5082778;28;20064;-78
2024/02/15 06:39:43;;;;;;;0.03;0.03;;;11.70;78.80;;;;;;5083443;28;20034;-78
2024/02/15 06:42:15;;;;;;;0.00;0.00;;;11.40;79.40;;;;;;5078616;28;20016;-77
2024/02/15 06:44:41;;;;;;;6.13;2.95;;;11.40;79.50;;;;;;5082081;28;20035;-78
2024/02/15 06:47:10;;;;;;;0.00;0.00;;;11.30;80.00;;;;;;5081675;28;20537;-78
2024/02/15 06:49:42;;;;;;;0.10;0.10;;;11.30;80.10;;;;;;5077060;28;20040;-77
2024/02/15 06:52:08;;;;;;;0.08;0.08;;;11.50;79.80;;;;;;5082827;28;20722;-78
2024/02/15 06:54:41;;;;;;;0.00;0.00;;;11.40;79.70;;;;;;5082444;28;20032;-78
2024/02/15 06:57:07;;;;;;;0.00;0.00;;;11.40;79.70;;;;;;5078182;28;20081;-78
2024/02/15 06:59:34;;;;;;;0.00;0.00;;;11.40;79.80;;;;;;5069830;28;20116;-78
2024/02/15 07:02:00;;;;;;;0.00;0.00;;;11.70;78.90;;;;;;5072190;28;20036;-78
2024/02/15 07:04:26;;;;;;;0.00;0.00;;;11.50;79.50;;;;;;5081343;28;20048;-78
2024/02/15 07:06:54;;;;;;;0.00;0.00;;;11.40;80.40;;;;;;5080708;28;20120;-79
2024/02/15 07:09:20;;;;;;;0.00;0.00;;;11.30;81.20;;;;;;5082985;28;20027;-77
2024/02/15 07:11:46;;;;;;;0.00;0.00;;;11.40;80.90;;;;;;5074580;28;20031;-77
2024/02/15 07:14:13;;;;;;;0.00;0.00;;;11.40;81.20;;;;;;5076324;28;20036;-77
2024/02/15 07:16:39;;;;;;;;;;;11.40;81.00;;;;;;5088494;28;20028;-78
2024/02/15 07:19:05;;;;;;;0.00;0.00;;;11.30;81.40;;;;;;5078662;28;20035;-77
2024/02/15 07:21:31;;;;;;;0.00;0.00;;;11.50;80.70;;;;;;5076040;28;20063;-77
2024/02/15 07:23:58;;;;;;;0.00;0.00;;;11.50;80.60;;;;;;5080621;28;20025;-77
2024/02/15 07:26:24;;;;;;;;;;;11.60;80.60;;;;;;5086618;28;20024;-78
2024/02/15 07:28:57;;;;;;;0.10;0.10;;;11.70;80.20;;;;;;5077187;28;19912;-77
2024/02/15 07:31:27;;;;;;;0.10;0.10;;;12.00;79.10;;;;;;5080896;28;20519;-76
2024/02/15 07:33:53;;;;;;;0.00;0.00;;;12.10;78.40;;;;;;5077172;28;20140;-77
2024/02/15 07:36:22;;;;;;;0.00;0.00;;;12.00;78.80;;;;;;5079312;28;20085;-77
2024/02/15 07:38:52;;;;;;;0.10;0.10;;;12.10;78.70;;;;;;5077993;28;20052;-77
2024/02/15 07:41:22;;;;;;;0.10;0.10;;;12.20;78.40;;;;;;5067485;28;20024;-77
2024/02/15 07:43:48;;;;;;;0.10;0.10;;;12.10;78.70;;;;;;5080955;28;20021;-77
2024/02/15 07:46:16;;;;;;;0.00;0.00;;;12.20;78.50;;;;;;5095907;28;20055;-77
2024/02/15 07:48:45;;;;;;;0.08;0.08;;;12.30;78.00;;;;;;5079390;28;20024;-77
2024/02/15 07:51:18;;;;;;;0.00;0.00;;;12.30;78.10;;;;;;5079356;28;20039;-77
2024/02/15 07:53:44;;;;;;;0.10;0.10;;;12.30;77.80;;;;;;5085687;28;20028;-77
2024/02/15 07:56:11;;;;;;;0.00;0.00;;;12.40;77.90;;;;;;5083797;28;20552;-77
2024/02/15 07:58:46;;;;;;;0.00;0.00;;;12.30;78.50;;;;;;5083198;28;20613;-77
2024/02/15 08:01:20;;;;;;;0.05;0.05;;;12.30;78.80;;;;;;5075231;28;20098;-77
2024/02/15 08:03:46;;;;;;;0.00;0.00;;;12.30;79.10;;;;;;5089932;28;20111;-77
2024/02/15 08:06:13;;;;;;;0.07;0.07;;;12.30;78.80;;;;;;5078538;28;20095;-77
2024/02/15 08:08:45;;;;;;;0.08;0.08;;;12.50;78.60;;;;;;5087302;28;20032;-77
2024/02/15 08:11:15;;;;;;;0.00;0.00;;;12.60;78.50;;;;;;5080243;28;20043;-77
2024/02/15 08:13:45;;;;;;;0.00;0.00;;;12.60;78.30;;;;;;5073788;28;20449;-77
2024/02/15 08:16:12;;;;;;;0.00;0.00;;;12.70;77.90;;;;;;5078518;28;20082;-76
2024/02/15 08:18:38;;;;;;;;;;;12.90;77.40;;;;;;5090261;28;20023;-77
2024/02/15 08:21:05;;;;;;;0.00;0.00;;;13.00;76.50;;;;;;5080089;28;19911;-76
2024/02/15 08:23:32;;;;;;;0.03;0.03;;;13.30;75.90;;;;;;5085594;28;20024;-77
2024/02/15 08:25:57;;;;;;;0.10;0.10;;;13.40;76.30;;;;;;5086415;28;20020;-76
2024/02/15 08:28:23;;;;;;;0.83;0.77;;;13.60;75.50;;;;;;5079389;28;20464;-77
2024/02/15 08:30:49;;;;;;;0.00;0.00;;;13.80;75.30;;;;;;5084758;28;20099;-77
2024/02/15 08:33:14;;;;;;;0.00;0.00;;;13.90;75.20;;;;;;5081517;28;20845;-77
2024/02/15 08:35:41;;;;;;;0.00;0.00;;;14.20;74.60;;;;;;5078116;28;20029;-77
2024/02/15 08:38:07;;;;;;;0.00;0.00;;;14.40;73.80;;;;;;5089993;28;20620;-77
2024/02/15 08:40:32;;;;;;;0.00;0.00;;;15.20;72.70;;;;;;5079015;28;20036;-77
2024/02/15 08:42:58;;;;;;;0.00;0.00;;;15.70;70.90;;;;;;5091708;28;20024;-77
2024/02/15 08:45:24;;;;;;;0.00;0.00;;;16.40;69.70;;;;;;5080067;28;20157;-77
2024/02/15 08:47:52;;;;;;;0.00;0.00;;;16.90;69.80;;;;;;5074893;28;20028;-77
2024/02/15 08:50:19;;;;;;;0.00;0.00;;;16.80;68.80;;;;;;5080978;28;20021;-77
2024/02/15 08:52:46;;;;;;;0.00;0.00;;;17.10;68.40;;;;;;5086897;28;20111;-77
2024/02/15 08:55:15;;;;;;;0.00;0.00;;;17.20;67.80;;;;;;5077833;28;20051;-76
2024/02/15 08:57:43;;;;;;;0.00;0.00;;;17.30;68.10;;;;;;5085816;28;20100;-76
2024/02/15 09:00:16;;;;;;;0.00;0.00;;;17.60;68.20;;;;;;5081677;28;20049;-77
2024/02/15 09:02:45;;;;;;;0.00;0.00;;;17.40;68.80;;;;;;5085335;28;20064;-77
2024/02/15 09:05:14;;;;;;;0.00;0.00;;;17.50;68.70;;;;;;5082471;28;20020;-77
2024/02/15 09:07:43;;;;;;;0.00;0.00;;;17.70;66.90;;;;;;5077945;28;20523;-77
2024/02/15 09:10:10;;;;;;;0.00;0.00;;;16.90;68.40;;;;;;5084713;28;20027;-77
2024/02/15 09:12:43;;;;;;;0.00;0.00;;;16.60;69.50;;;;;;5086299;28;20043;-77
2024/02/15 09:15:10;;;;;;;0.00;0.00;;;16.50;70.60;;;;;;5080570;28;20028;-77
2024/02/15 09:17:39;;;;;;;0.00;0.00;;;16.50;69.70;;;;;;5084046;28;20544;-77
2024/02/15 09:20:14;;;;;;;0.00;0.00;;;16.40;71.20;;;;;;5085873;28;20055;-77
2024/02/15 09:22:41;;;;;;;0.00;0.00;;;16.10;70.90;;;;;;5079504;28;20032;-78
2024/02/15 09:25:08;;;;;;;0.00;0.00;;;16.20;70.30;;;;;;5084675;28;20081;-78
2024/02/15 09:27:33;;;;;;;;;;;16.20;70.80;;;;;;5082454;28;20106;-78
2024/02/15 09:29:59;;;;;;;0.00;0.00;;;16.30;70.20;;;;;;5093370;28;19961;-78
2024/02/15 09:32:25;;;;;;;0.00;0.00;;;17.00;69.30;;;;;;5083285;28;20281;-77
2024/02/15 09:34:50;;;;;;;0.20;0.20;;;17.30;69.50;;;;;;5083739;28;20535;-78
2024/02/15 09:37:16;;;;;;;0.00;0.00;;;17.10;69.30;;;;;;5087143;28;20055;-78
2024/02/15 09:39:42;;;;;;;0.00;0.00;;;17.10;69.60;;;;;;5090630;28;20063;-77
2024/02/15 09:42:07;;;;;;;0.00;0.00;;;17.00;69.50;;;;;;5084992;28;20020;-77
2024/02/15 09:44:33;;;;;;;0.00;0.00;;;16.60;70.30;;;;;;5084553;28;20028;-77
2024/02/15 09:47:08;;;;;;;0.00;0.00;;;16.70;70.60;;;;;;5070386;28;20035;-77
2024/02/15 09:49:36;;;;;;;0.00;0.00;;;16.40;70.60;;;;;;5085557;28;20036;-77
2024/02/15 09:52:04;;;;;;;0.55;0.55;;;16.50;70.20;;;;;;5085049;28;20030;-77
2024/02/15 09:54:30;;;;;;;0.00;0.00;;;16.50;70.10;;;;;;5074738;28;20507;-78
2024/02/15 09:57:00;;;;;;;;;;;16.80;70.10;;;;;;5079791;28;20601;-77
2024/02/15 09:59:26;;;;;;;0.00;0.00;;;17.10;69.40;;;;;;5093494;28;19964;-77
2024/02/15 10:01:57;;;;;;;0.00;0.00;;;17.30;69.10;;;;;;5084955;28;20027;-78
2024/02/15 10:04:25;;;;;;;0.00;0.00;;;17.20;68.90;;;;;;5083232;28;20043;-77
2024/02/15 10:06:51;;;;;;;0.00;0.00;;;17.00;68.80;;;;;;5088428;28;20027;-77
2024/02/15 10:09:24;;;;;;;0.00;0.00;;;17.20;69.20;;;;;;5088068;28;20024;-77
2024/02/15 10:12:00;;;;;;;0.00;0.00;;;17.60;67.90;;;;;;5087091;28;20451;-77
2024/02/15 10:14:27;;;;;;;0.00;0.00;;;17.30;67.00;;;;;;5074281;28;20039;-77
2024/02/15 10:16:54;;;;;;;0.00;0.00;;;17.10;68.30;;;;;;5090188;28;20028;-77
2024/02/15 10:19:24;;;;;;;0.00;0.00;;;17.00;69.20;;;;;;5085065;28;20499;-77
2024/02/15 10:21:55;;;;;;;0.00;0.00;;;16.80;70.00;;;;;;5081801;28;20387;-77
2024/02/15 10:24:23;;;;;;;0.00;0.00;;;16.80;70.30;;;;;;5083733;28;20058;-78
2024/02/15 10:26:49;;;;;;;0.00;0.00;;;16.80;70.10;;;;;;5082134;28;20020;-77
2024/02/15 10:29:17;;;;;;;0.00;0.00;;;16.80;71.20;;;;;;5080989;28;20140;-77
2024/02/15 10:32:01;;;;;;;0.00;0.00;;;16.90;70.30;;;;;;5082809;28;20050;-77
2024/02/15 10:34:27;;;;;;;0.00;0.00;;;16.80;71.40;;;;;;5085321;28;20035;-77
2024/02/15 10:36:56;;;;;;;0.00;0.00;;;16.70;70.30;;;;;;5084308;28;20028;-77
2024/02/15 10:39:23;;;;;;;0.00;0.00;;;16.90;70.90;;;;;;5088354;28;20406;-77
2024/02/15 10:41:54;;;;;;;0.00;0.00;;;16.70;70.20;;;;;;5080180;28;20028;-77
2024/02/15 10:44:27;;;;;;;0.00;0.00;;;17.00;70.70;;;;;;5078792;28;20020;-77
2024/02/15 10:46:54;;;;;;;0.00;0.00;;;16.80;70.20;;;;;;5084233;28;20093;-77
2024/02/15 10:49:23;;;;;;;0.00;0.00;;;17.00;70.60;;;;;;5084817;28;20082;-77
2024/02/15 10:51:58;;;;;;;0.00;0.00;;;17.00;70.50;;;;;;5079431;28;20050;-77
2024/02/15 10:54:47;;;;;;;0.00;0.00;;;16.90;71.10;;;;;;5082394;28;20032;-78
2024/02/15 10:57:16;;;;;;;0.00;0.00;;;16.90;72.90;;;;;;5084400;28;20127;-77
2024/02/15 11:00:01;;;;;;;0.00;0.00;;;17.10;73.10;;;;;;5082813;28;20039;-77
2024/02/15 11:02:34;;;;;;;0.00;0.00;;;17.20;73.50;;;;;;5076757;28;20028;-77
2024/02/15 11:05:11;;;;;;;0.00;0.00;;;17.20;72.90;;;;;;5086858;28;20031;-77
2024/02/15 11:07:38;;;;;;;0.00;0.00;;;17.30;72.40;;;;;;5086693;28;20097;-77
2024/02/15 11:10:08;;;;;;;0.00;0.00;;;17.40;72.30;;;;;;5083660;28;20028;-77
2024/02/15 11:12:36;;;;;;;0.00;0.00;;;17.30;72.20;;;;;;5080906;28;20032;-77
2024/02/15 11:15:02;;;;;;;0.00;0.00;;;17.30;71.50;;;;;;5080413;28;20514;-77
2024/02/15 11:17:37;;;;;;;0.10;0.10;;;17.20;71.40;;;;;;5083245;28;20032;-78
2024/02/15 11:20:08;;;;;;;0.00;0.00;;;17.00;71.90;;;;;;5079882;28;20027;-77
2024/02/15 11:22:36;;;;;;;0.00;0.00;;;17.20;71.90;;;;;;5078725;28;20115;-78
2024/02/15 11:25:08;;;;;;;0.00;0.00;;;17.60;71.80;;;;;;5082124;28;20028;-77
2024/02/15 11:27:40;;;;;;;0.00;0.00;;;17.50;70.90;;;;;;5084007;28;20024;-77
2024/02/15 11:30:09;;;;;;;0.00;0.00;;;17.90;71.80;;;;;;5075612;28;20027;-77
2024/02/15 11:33:03;;;;;;;0.00;0.00;;;17.70;70.90;;;;;;5088513;28;20059;-78
2024/02/15 11:35:30;;;;;;;0.00;0.00;;;17.60;71.30;;;;;;5083830;28;20826;-77
2024/02/15 11:38:03;;;;;;;0.00;0.00;;;17.40;71.20;;;;;;5086523;28;20032;-78
2024/02/15 11:40:52;;;;;;;0.00;0.00;;;17.40;72.10;;;;;;5087499;28;20021;-78
2024/02/15 11:43:49;;;;;;;0.00;0.00;;;17.40;72.40;;;;;;5085196;28;20127;-77
2024/02/15 11:46:24;;;;;;;0.00;0.00;;;17.60;72.10;;;;;;5084611;28;20023;-78
2024/02/15 11:48:51;;;;;;;0.00;0.00;;;17.60;71.60;;;;;;5086164;28;20119;-78
2024/02/15 11:51:25;;;;;;;;;;;17.50;72.20;;;;;;5075440;28;20601;-77
2024/02/15 11:54:08;;;;;;;0.00;0.00;;;17.60;71.80;;;;;;5085374;28;19960;-77
2024/02/15 11:57:13;;;;;;;0.00;0.00;;;17.50;73.00;;;;;;5076429;28;20052;-77
2024/02/15 12:00:12;;;;;;;0.00;0.00;;;17.50;73.60;;;;;;5082870;28;20036;-77
2024/02/15 12:19:26;;;;;;;0.00;0.00;;;17.30;75.30;;;;;;5077351;28;20035;-77
2024/02/15 12:21:54;;;;;;;0.40;0.40;;;17.50;74.30;;;;;;5078649;28;20016;-77
2024/02/15 12:24:25;;;;;;;0.00;0.00;;;17.70;74.10;;;;;;5077329;28;20271;-77
2024/02/15 12:26:50;;;;;;;0.00;0.00;;;17.60;74.30;;;;;;5081639;28;20028;-77
2024/02/15 12:29:17;;;;;;;0.00;0.00;;;17.60;73.80;;;;;;5086312;28;20636;-77
2024/02/15 12:31:44;;;;;;;0.00;0.00;;;17.70;73.50;;;;;;5086756;28;20100;-77
2024/02/15 12:34:10;;;;;;;;;;;17.60;73.10;;;;;;5089663;28;20447;-77
2024/02/15 12:36:37;;;;;;;0.08;0.08;;;17.90;72.50;;;;;;5087768;28;19908;-77
2024/02/15 12:39:10;;;;;;;0.00;0.00;;;17.80;73.40;;;;;;5085601;28;20060;-78
2024/02/15 12:41:49;;;;;;;0.00;0.00;;;17.50;73.20;;;;;;5084761;28;20028;-77
2024/02/15 12:44:22;;;;;;;0.00;0.00;;;17.30;74.40;;;;;;5082266;28;20031;-77
2024/02/15 12:46:55;;;;;;;0.00;0.00;;;17.30;74.60;;;;;;5079305;28;20550;-77
2024/02/15 12:49:21;;;;;;;0.00;0.00;;;17.40;75.00;;;;;;5085853;28;20057;-77
2024/02/15 12:51:52;;;;;;;1.63;0.73;;;17.40;75.50;;;;;;5081874;28;20446;-77
2024/02/15 12:54:21;;;;;;;0.00;0.00;;;17.50;75.10;;;;;;5082259;28;20039;-77
2024/02/15 12:56:52;;;;;;;0.00;0.00;;;17.40;76.00;;;;;;5085991;28;20097;-77
2024/02/15 12:59:23;;;;;;;0.00;0.00;;;17.60;75.80;;;;;;5082345;28;20119;-77
2024/02/15 13:01:49;;;;;;;0.00;0.00;;;17.60;75.10;;;;;;5080702;28;20047;-77
2024/02/15 13:04:28;;;;;;;0.00;0.00;;;17.50;74.90;;;;;;5081160;28;20032;-77
2024/02/15 13:06:54;;;;;;;0.00;0.00;;;17.50;75.60;;;;;;5085690;28;20062;-77
2024/02/15 13:09:22;;;;;;;0.00;0.00;;;17.30;75.60;;;;;;5086667;27;20060;-78
2024/02/15 13:11:49;;;;;;;0.00;0.00;;;17.30;76.60;;;;;;5093799;28;20114;-77
2024/02/15 13:14:15;;;;;;;0.00;0.00;;;17.20;77.00;;;;;;5078253;28;20035;-77
2024/02/15 13:16:43;;;;;;;0.00;0.00;;;17.20;76.80;;;;;;5086258;28;20027;-77
2024/02/15 13:19:08;;;;;;;0.00;0.00;;;17.40;77.20;;;;;;5090523;28;20092;-77
2024/02/15 13:21:34;;;;;;;0.00;0.00;;;17.40;76.70;;;;;;5084840;28;20475;-77
2024/02/15 13:24:04;;;;;;;0.00;0.00;;;17.40;76.60;;;;;;5079998;28;20104;-77